Time;durP1;ratioP1;P1;durP2;ratioP2;P2;SDS_P1;SDS_P2;PMS_P1;PMS_P2;Temp;Humidity;BMP_temperature;BMP_pressure;BME280_temperature;BME280_humidity;BME280_pressure;Samples;Min_cycle;Max_cycle;Signal;HPM_P1;HPM_P2
2021/07/02 00:02:03;;;;;;;4.37;3.23;;;;;;;;;;745019;186;919953;-70
2021/07/02 00:04:29;;;;;;;5.50;3.97;;;;;;;;;;738801;187;919335;-71
2021/07/02 00:06:55;;;;;;;4.53;3.20;;;;;;;;;;747019;187;893808;-71
2021/07/02 00:09:21;;;;;;;5.00;3.70;;;;;;;;;;744775;187;919517;-71
2021/07/02 00:11:47;;;;;;;4.13;2.93;;;;;;;;;;741060;186;928023;-71
2021/07/02 00:14:12;;;;;;;4.43;3.33;;;;;;;;;;743230;187;918390;-71
2021/07/02 00:16:39;;;;;;;4.87;2.80;;;;;;;;;;739789;187;918532;-71
2021/07/02 00:19:04;;;;;;;6.50;3.27;;;;;;;;;;738832;186;918500;-71
2021/07/02 00:21:30;;;;;;;7.25;3.08;;;;;;;;;;745095;186;918465;-71
2021/07/02 00:23:56;;;;;;;3.80;2.97;;;;;;;;;;736612;187;935756;-70
2021/07/02 00:26:22;;;;;;;4.33;3.40;;;;;;;;;;738782;186;919439;-71
2021/07/02 00:28:48;;;;;;;5.20;3.57;;;;;;;;;;738392;187;919105;-69
2021/07/02 00:31:14;;;;;;;4.57;2.90;;;;;;;;;;748212;187;915823;-70
2021/07/02 00:33:39;;;;;;;4.83;2.80;;;;;;;;;;740104;189;919173;-69
2021/07/02 00:36:05;;;;;;;6.97;4.00;;;;;;;;;;739057;187;919290;-70
2021/07/02 00:38:31;;;;;;;7.13;3.70;;;;;;;;;;744467;186;712813;-71
2021/07/02 00:40:57;;;;;;;4.50;3.13;;;;;;;;;;738924;187;918960;-71
2021/07/02 00:43:23;;;;;;;6.63;3.50;;;;;;;;;;737154;189;918475;-71
2021/07/02 00:45:49;;;;;;;6.27;3.70;;;;;;;;;;734306;188;917239;-71
2021/07/02 00:48:14;;;;;;;4.85;3.47;;;;;;;;;;739088;186;918600;-71
2021/07/02 00:50:40;;;;;;;3.90;3.10;;;;;;;;;;740801;187;919588;-70
2021/07/02 00:53:06;;;;;;;5.40;4.00;;;;;;;;;;740094;186;919306;-71
2021/07/02 00:55:32;;;;;;;5.37;4.00;;;;;;;;;;741581;183;919084;-72
2021/07/02 00:57:58;;;;;;;5.83;4.33;;;;;;;;;;742675;186;919335;-71
2021/07/02 01:00:24;;;;;;;4.25;3.70;;;;;;;;;;729897;186;919626;-71
2021/07/02 01:02:49;;;;;;;5.23;3.70;;;;;;;;;;744644;186;919318;-71
2021/07/02 01:05:15;;;;;;;5.67;4.30;;;;;;;;;;739813;186;916387;-71
2021/07/02 01:07:41;;;;;;;5.97;4.05;;;;;;;;;;738867;186;919008;-71
2021/07/02 01:10:07;;;;;;;5.57;4.30;;;;;;;;;;746719;186;916411;-71
2021/07/02 01:12:33;;;;;;;12.47;4.00;;;;;;;;;;742450;186;918895;-73
2021/07/02 01:14:59;;;;;;;4.90;4.20;;;;;;;;;;743196;187;918779;-71
2021/07/02 01:17:25;;;;;;;7.00;4.10;;;;;;;;;;743514;187;919182;-72
2021/07/02 01:19:51;;;;;;;6.63;4.10;;;;;;;;;;729903;187;918368;-71
2021/07/02 01:22:21;;;;;;;6.17;3.70;;;;;;;;;;738227;186;919002;-71
2021/07/02 01:24:46;;;;;;;4.67;3.50;;;;;;;;;;740678;187;919072;-71
2021/07/02 01:27:12;;;;;;;4.87;3.60;;;;;;;;;;744803;186;805908;-71
2021/07/02 01:29:38;;;;;;;5.83;4.17;;;;;;;;;;740029;187;919293;-72
2021/07/02 01:32:04;;;;;;;5.90;3.90;;;;;;;;;;736928;187;993425;-71
2021/07/02 01:34:30;;;;;;;7.83;3.80;;;;;;;;;;743264;187;919291;-72
2021/07/02 01:36:55;;;;;;;5.20;4.00;;;;;;;;;;742116;186;938741;-72
2021/07/02 01:39:21;;;;;;;10.90;4.37;;;;;;;;;;741888;188;919783;-71
2021/07/02 01:41:47;;;;;;;7.70;4.27;;;;;;;;;;740636;187;919117;-71
2021/07/02 01:44:13;;;;;;;5.00;4.03;;;;;;;;;;745009;186;919439;-70
2021/07/02 01:46:39;;;;;;;5.47;4.30;;;;;;;;;;742618;186;918294;-71
2021/07/02 01:49:05;;;;;;;7.80;3.90;;;;;;;;;;741201;186;918767;-72
2021/07/02 01:51:30;;;;;;;4.90;3.80;;;;;;;;;;744158;187;864441;-71
2021/07/02 01:53:56;;;;;;;7.80;4.77;;;;;;;;;;736931;187;920990;-71
2021/07/02 01:56:22;;;;;;;6.57;4.80;;;;;;;;;;740742;187;918718;-70
2021/07/02 01:58:48;;;;;;;9.20;4.23;;;;;;;;;;745609;187;835098;-71
2021/07/02 02:01:14;;;;;;;8.30;4.63;;;;;;;;;;741478;187;920230;-71
2021/07/02 02:03:40;;;;;;;6.33;4.00;;;;;;;;;;743232;186;913166;-71
2021/07/02 02:06:06;;;;;;;11.00;4.87;;;;;;;;;;746308;186;914252;-71
2021/07/02 02:08:31;;;;;;;9.33;4.50;;;;;;;;;;739549;186;916494;-71
2021/07/02 02:10:57;;;;;;;6.37;4.60;;;;;;;;;;741128;186;915640;-71
2021/07/02 02:13:23;;;;;;;11.93;4.67;;;;;;;;;;735014;188;919212;-71
2021/07/02 02:15:49;;;;;;;5.80;4.00;;;;;;;;;;744123;186;919407;-70
2021/07/02 02:18:15;;;;;;;7.07;4.83;;;;;;;;;;738701;186;918796;-72
2021/07/02 02:20:41;;;;;;;7.60;4.77;;;;;;;;;;738103;189;918595;-72
2021/07/02 02:23:06;;;;;;;5.57;4.57;;;;;;;;;;742165;187;1008267;-71
2021/07/02 02:25:32;;;;;;;6.23;4.27;;;;;;;;;;743427;186;712855;-71
2021/07/02 02:27:58;;;;;;;8.13;5.10;;;;;;;;;;742550;188;914753;-72
2021/07/02 02:30:24;;;;;;;6.60;4.93;;;;;;;;;;743654;187;920071;-71
2021/07/02 02:32:50;;;;;;;10.87;4.53;;;;;;;;;;739488;186;919073;-72
2021/07/02 02:35:16;;;;;;;16.57;6.10;;;;;;;;;;728353;188;919172;-71
2021/07/02 02:37:42;;;;;;;6.68;4.90;;;;;;;;;;739947;187;920085;-71
2021/07/02 02:40:08;;;;;;;14.60;5.37;;;;;;;;;;743911;186;919152;-72
2021/07/02 02:42:34;;;;;;;8.43;5.40;;;;;;;;;;737714;186;918300;-72
2021/07/02 02:44:59;;;;;;;8.73;6.40;;;;;;;;;;737245;187;930478;-71
2021/07/02 02:47:25;;;;;;;7.53;5.00;;;;;;;;;;746307;187;918643;-71
2021/07/02 02:49:51;;;;;;;5.93;4.83;;;;;;;;;;741128;187;918555;-70
2021/07/02 02:52:17;;;;;;;8.23;5.97;;;;;;;;;;729614;188;918708;-72
2021/07/02 02:54:43;;;;;;;8.27;4.40;;;;;;;;;;743767;187;918291;-68
2021/07/02 02:57:09;;;;;;;7.80;5.23;;;;;;;;;;737525;186;920620;-69
2021/07/02 02:59:34;;;;;;;7.45;5.22;;;;;;;;;;737522;187;919299;-68
2021/07/02 03:02:00;;;;;;;5.50;4.50;;;;;;;;;;743259;189;879119;-66
2021/07/02 03:04:26;;;;;;;14.63;5.83;;;;;;;;;;739519;188;918740;-68
2021/07/02 03:06:52;;;;;;;8.33;5.00;;;;;;;;;;744359;187;918959;-68
2021/07/02 03:09:18;;;;;;;7.10;5.40;;;;;;;;;;741930;187;1021545;-65
2021/07/02 03:11:44;;;;;;;7.60;6.20;;;;;;;;;;743822;187;918207;-67
2021/07/02 03:14:09;;;;;;;7.67;6.23;;;;;;;;;;740687;186;919513;-69
2021/07/02 03:16:35;;;;;;;8.45;6.20;;;;;;;;;;740962;186;918562;-68
2021/07/02 03:19:01;;;;;;;9.03;6.70;;;;;;;;;;747953;186;918727;-68
2021/07/02 03:21:27;;;;;;;9.07;7.60;;;;;;;;;;739565;188;919022;-68
2021/07/02 03:23:53;;;;;;;9.77;6.37;;;;;;;;;;740353;186;918877;-67
2021/07/02 03:26:19;;;;;;;10.25;7.05;;;;;;;;;;744223;189;917893;-69
2021/07/02 03:28:44;;;;;;;8.47;7.20;;;;;;;;;;738548;186;919377;-66
2021/07/02 03:31:10;;;;;;;12.30;7.63;;;;;;;;;;742974;186;880526;-67
2021/07/02 03:33:36;;;;;;;10.70;8.85;;;;;;;;;;740837;186;918029;-64
2021/07/02 03:36:02;;;;;;;10.20;7.37;;;;;;;;;;742957;184;919905;-65
2021/07/02 03:38:28;;;;;;;10.07;7.32;;;;;;;;;;736701;186;919406;-69
2021/07/02 03:40:54;;;;;;;10.55;7.28;;;;;;;;;;738047;189;1030097;-69
2021/07/02 03:43:20;;;;;;;9.70;8.43;;;;;;;;;;744374;186;912839;-71
2021/07/02 03:45:46;;;;;;;9.10;7.80;;;;;;;;;;738422;187;920767;-71
2021/07/02 03:48:12;;;;;;;14.30;8.27;;;;;;;;;;737909;186;984686;-71
2021/07/02 03:50:37;;;;;;;10.13;8.77;;;;;;;;;;740945;187;892271;-68
2021/07/02 03:53:03;;;;;;;11.70;8.80;;;;;;;;;;739590;187;919007;-68
2021/07/02 03:55:29;;;;;;;13.70;9.40;;;;;;;;;;741755;187;915785;-69
2021/07/02 03:57:55;;;;;;;12.97;8.10;;;;;;;;;;742681;186;1110368;-68
2021/07/02 04:00:21;;;;;;;17.47;8.10;;;;;;;;;;737085;186;915775;-68
2021/07/02 04:02:47;;;;;;;11.10;8.33;;;;;;;;;;746262;187;922002;-68
2021/07/02 04:05:12;;;;;;;12.33;8.83;;;;;;;;;;737602;186;919338;-67
2021/07/02 04:07:38;;;;;;;10.70;8.63;;;;;;;;;;744785;186;919323;-66
2021/07/02 04:10:05;;;;;;;12.97;9.67;;;;;;;;;;742879;186;918640;-69
2021/07/02 04:12:30;;;;;;;11.45;7.97;;;;;;;;;;730972;188;919047;-66
2021/07/02 04:14:56;;;;;;;14.30;9.43;;;;;;;;;;746091;187;917569;-67
2021/07/02 04:17:22;;;;;;;10.60;9.00;;;;;;;;;;740559;186;919776;-67
2021/07/02 04:19:48;;;;;;;11.70;7.90;;;;;;;;;;739185;189;919235;-67
2021/07/02 04:22:14;;;;;;;21.10;10.00;;;;;;;;;;742984;188;918418;-66
2021/07/02 04:24:40;;;;;;;16.43;9.30;;;;;;;;;;735865;186;920528;-68
2021/07/02 04:27:05;;;;;;;11.67;8.40;;;;;;;;;;741244;186;917140;-68
2021/07/02 04:29:31;;;;;;;13.30;9.13;;;;;;;;;;741212;186;920080;-67
2021/07/02 04:31:57;;;;;;;13.67;9.23;;;;;;;;;;746785;187;913460;-65
2021/07/02 04:34:23;;;;;;;12.73;8.70;;;;;;;;;;746567;186;918360;-65
2021/07/02 04:36:49;;;;;;;11.57;9.70;;;;;;;;;;742470;186;1019199;-64
2021/07/02 04:39:15;;;;;;;10.90;8.70;;;;;;;;;;745220;186;920500;-64
2021/07/02 04:41:41;;;;;;;16.90;9.10;;;;;;;;;;744222;186;714438;-64
2021/07/02 04:44:06;;;;;;;11.03;9.23;;;;;;;;;;738541;187;919416;-65
2021/07/02 04:46:32;;;;;;;18.20;10.70;;;;;;;;;;736816;187;940749;-66
2021/07/02 04:48:58;;;;;;;13.83;9.07;;;;;;;;;;739890;186;922094;-66
2021/07/02 04:51:24;;;;;;;11.18;9.00;;;;;;;;;;739441;187;919643;-66
2021/07/02 04:53:50;;;;;;;12.53;8.93;;;;;;;;;;744550;189;919703;-64
2021/07/02 04:56:16;;;;;;;11.53;8.43;;;;;;;;;;736909;186;922047;-65
2021/07/02 04:58:42;;;;;;;12.00;9.27;;;;;;;;;;739598;186;916137;-66
2021/07/02 05:01:07;;;;;;;16.20;10.43;;;;;;;;;;738622;186;918207;-66
2021/07/02 05:03:33;;;;;;;13.40;9.90;;;;;;;;;;745711;186;819874;-66
2021/07/02 05:05:59;;;;;;;14.20;9.93;;;;;;;;;;740326;186;914599;-66
2021/07/02 05:08:25;;;;;;;14.40;10.23;;;;;;;;;;738859;187;916554;-66
2021/07/02 05:10:51;;;;;;;15.97;11.07;;;;;;;;;;745450;186;915962;-66
2021/07/02 05:13:17;;;;;;;14.30;10.90;;;;;;;;;;738294;187;921300;-66
2021/07/02 05:15:42;;;;;;;13.90;9.60;;;;;;;;;;740690;186;919694;-66
2021/07/02 05:18:08;;;;;;;16.10;11.20;;;;;;;;;;744135;187;918283;-67
2021/07/02 05:20:34;;;;;;;15.17;10.73;;;;;;;;;;743845;186;624226;-66
2021/07/02 05:23:00;;;;;;;14.27;11.40;;;;;;;;;;741748;186;918366;-66
2021/07/02 05:25:27;;;;;;;12.77;10.55;;;;;;;;;;745250;187;916530;-65
2021/07/02 05:27:52;;;;;;;15.23;11.67;;;;;;;;;;750377;181;918247;-65
2021/07/02 05:30:18;;;;;;;17.40;10.53;;;;;;;;;;741748;186;919316;-67
2021/07/02 05:32:44;;;;;;;12.23;9.77;;;;;;;;;;737453;186;923917;-65
2021/07/02 05:35:10;;;;;;;13.60;9.97;;;;;;;;;;742516;187;919687;-65
2021/07/02 05:37:39;;;;;;;13.00;10.17;;;;;;;;;;738916;187;953757;-65
2021/07/02 05:40:05;;;;;;;17.77;12.30;;;;;;;;;;739242;186;916432;-64
2021/07/02 05:42:31;;;;;;;13.43;11.50;;;;;;;;;;746313;186;915337;-64
2021/07/02 05:44:57;;;;;;;13.07;10.95;;;;;;;;;;739831;186;919601;-63
2021/07/02 05:47:24;;;;;;;18.20;11.30;;;;;;;;;;742769;188;915450;-64
2021/07/02 05:49:49;;;;;;;14.47;11.27;;;;;;;;;;741310;186;1015372;-64
2021/07/02 05:52:14;;;;;;;15.80;11.50;;;;;;;;;;748726;186;847921;-66
2021/07/02 05:54:40;;;;;;;14.40;10.80;;;;;;;;;;738789;186;832768;-65
2021/07/02 05:57:06;;;;;;;15.70;12.20;;;;;;;;;;738075;187;918004;-66
2021/07/02 05:59:32;;;;;;;12.43;11.13;;;;;;;;;;744576;187;911565;-66
2021/07/02 06:01:58;;;;;;;13.00;10.93;;;;;;;;;;735272;186;916311;-64
2021/07/02 06:04:24;;;;;;;17.50;12.80;;;;;;;;;;738048;187;926160;-66
2021/07/02 06:06:50;;;;;;;15.27;12.03;;;;;;;;;;742385;186;916371;-66
2021/07/02 06:09:15;;;;;;;16.90;11.57;;;;;;;;;;740887;187;915992;-67
2021/07/02 06:11:41;;;;;;;14.73;10.77;;;;;;;;;;736405;187;916850;-67
2021/07/02 06:14:07;;;;;;;17.20;11.10;;;;;;;;;;741465;186;911565;-67
2021/07/02 06:16:33;;;;;;;13.80;10.97;;;;;;;;;;735983;187;916143;-67
2021/07/02 06:18:59;;;;;;;12.83;11.37;;;;;;;;;;739482;186;915742;-67
2021/07/02 06:21:25;;;;;;;15.40;11.40;;;;;;;;;;737725;187;916235;-68
2021/07/02 06:23:51;;;;;;;15.38;12.40;;;;;;;;;;742487;186;921463;-67
2021/07/02 06:26:16;;;;;;;14.67;11.40;;;;;;;;;;738653;186;919917;-67
2021/07/02 06:28:42;;;;;;;16.20;12.43;;;;;;;;;;732897;188;919097;-68
2021/07/02 06:31:08;;;;;;;12.63;11.30;;;;;;;;;;741364;186;911575;-66
2021/07/02 06:33:34;;;;;;;18.63;12.57;;;;;;;;;;742437;187;928962;-68
2021/07/02 06:36:00;;;;;;;18.75;12.15;;;;;;;;;;738334;187;922920;-68
2021/07/02 06:38:26;;;;;;;17.30;12.53;;;;;;;;;;743604;186;914003;-69
2021/07/02 06:40:52;;;;;;;15.20;12.03;;;;;;;;;;736649;187;913693;-69
2021/07/02 06:43:17;;;;;;;14.40;11.27;;;;;;;;;;747231;187;1016626;-69
2021/07/02 06:45:43;;;;;;;16.93;11.37;;;;;;;;;;738305;187;1021811;-68
2021/07/02 06:48:09;;;;;;;15.53;11.40;;;;;;;;;;745679;185;1015061;-69
2021/07/02 06:50:35;;;;;;;14.07;11.33;;;;;;;;;;743356;186;958959;-69
2021/07/02 06:53:02;;;;;;;14.70;12.27;;;;;;;;;;740135;186;919077;-70
2021/07/02 06:55:26;;;;;;;13.53;11.47;;;;;;;;;;743344;186;918106;-70
2021/07/02 06:57:52;;;;;;;15.00;10.83;;;;;;;;;;742857;186;917524;-69
2021/07/02 07:00:19;;;;;;;14.30;11.47;;;;;;;;;;740556;186;915969;-69
2021/07/02 07:02:44;;;;;;;15.23;11.13;;;;;;;;;;743417;186;918109;-69
2021/07/02 07:05:10;;;;;;;13.60;10.73;;;;;;;;;;736785;186;911133;-70
2021/07/02 07:07:36;;;;;;;13.57;12.10;;;;;;;;;;735126;187;919521;-70
2021/07/02 07:10:03;;;;;;;24.10;10.97;;;;;;;;;;741106;187;918306;-69
2021/07/02 07:12:29;;;;;;;13.00;10.37;;;;;;;;;;747302;187;918899;-70
2021/07/02 07:14:55;;;;;;;14.73;12.73;;;;;;;;;;735962;186;920619;-70
2021/07/02 07:17:21;;;;;;;14.17;11.70;;;;;;;;;;737353;187;917185;-69
2021/07/02 07:19:47;;;;;;;19.17;11.67;;;;;;;;;;741758;186;920084;-71
2021/07/02 07:22:13;;;;;;;12.67;10.10;;;;;;;;;;741283;186;915770;-70
2021/07/02 07:24:38;;;;;;;16.33;11.07;;;;;;;;;;741371;186;920973;-70
2021/07/02 07:27:04;;;;;;;14.43;10.03;;;;;;;;;;744081;186;951257;-70
2021/07/02 07:29:30;;;;;;;16.43;10.90;;;;;;;;;;736873;187;918893;-70
2021/07/02 07:31:56;;;;;;;11.00;9.48;;;;;;;;;;737998;186;917567;-70
2021/07/02 07:34:32;;;;;;;15.13;10.30;;;;;;;;;;742663;186;922442;-70
2021/07/02 07:36:54;;;;;;;11.87;9.67;;;;;;;;;;743936;187;846044;-71
2021/07/02 07:39:16;;;;;;;13.97;9.30;;;;;;;;;;739908;187;918673;-70
2021/07/02 07:41:42;;;;;;;20.83;11.47;;;;;;;;;;738433;187;918738;-71
2021/07/02 07:44:08;;;;;;;11.10;9.30;;;;;;;;;;741164;187;918260;-69
2021/07/02 07:46:34;;;;;;;11.07;8.03;;;;;;;;;;747829;186;919124;-70
2021/07/02 07:49:00;;;;;;;9.90;8.53;;;;;;;;;;741071;186;1020663;-70
2021/07/02 07:51:33;;;;;;;13.93;10.20;;;;;;;;;;741780;186;918048;-70
2021/07/02 07:53:56;;;;;;;10.90;9.17;;;;;;;;;;737959;188;920100;-72
2021/07/02 07:56:22;;;;;;;8.77;7.87;;;;;;;;;;737720;187;921124;-71
2021/07/02 07:58:48;;;;;;;9.87;7.30;;;;;;;;;;739032;187;917783;-71
2021/07/02 08:01:13;;;;;;;7.10;6.37;;;;;;;;;;748654;186;919131;-71
2021/07/02 08:03:39;;;;;;;7.07;5.63;;;;;;;;;;737083;186;919485;-70
2021/07/02 08:06:05;;;;;;;6.45;5.85;;;;;;;;;;732772;186;919345;-72
2021/07/02 08:08:31;;;;;;;7.63;5.53;;;;;;;;;;745386;186;918010;-73
2021/07/02 08:10:57;;;;;;;8.75;6.53;;;;;;;;;;741562;186;919454;-71
2021/07/02 08:13:27;;;;;;;8.70;7.80;;;;;;;;;;741673;186;918553;-71
2021/07/02 08:15:48;;;;;;;10.73;8.63;;;;;;;;;;746068;186;917865;-72
2021/07/02 08:18:15;;;;;;;11.40;7.87;;;;;;;;;;738072;187;919330;-71
2021/07/02 08:20:41;;;;;;;8.37;7.30;;;;;;;;;;736825;189;919168;-70
2021/07/02 08:23:09;;;;;;;6.80;5.30;;;;;;;;;;737890;186;920101;-71
2021/07/02 08:25:33;;;;;;;10.20;7.70;;;;;;;;;;746136;185;919238;-71
2021/07/02 08:30:31;;;;;;;7.57;6.63;;;;;;;;;;737195;186;910392;-72
2021/07/02 08:32:56;;;;;;;8.47;6.67;;;;;;;;;;747081;187;918681;-71
2021/07/02 08:35:23;;;;;;;7.40;6.40;;;;;;;;;;739561;189;919377;-70
2021/07/02 08:37:51;;;;;;;9.63;6.40;;;;;;;;;;741364;187;918454;-71
2021/07/02 08:40:15;;;;;;;9.33;7.57;;;;;;;;;;739016;186;919005;-70
2021/07/02 08:42:41;;;;;;;10.97;7.27;;;;;;;;;;743289;187;919867;-71
2021/07/02 08:45:07;;;;;;;8.55;6.62;;;;;;;;;;738021;187;923929;-70
2021/07/02 08:47:33;;;;;;;9.50;7.00;;;;;;;;;;742611;186;917321;-70
2021/07/02 08:49:58;;;;;;;7.60;6.83;;;;;;;;;;742836;187;917673;-71
2021/07/02 08:52:24;;;;;;;12.93;7.20;;;;;;;;;;740289;188;919509;-71
2021/07/02 08:54:50;;;;;;;9.13;7.27;;;;;;;;;;740511;187;917932;-71
2021/07/02 08:57:16;;;;;;;8.73;7.67;;;;;;;;;;743972;187;918386;-71
2021/07/02 08:59:42;;;;;;;8.23;6.80;;;;;;;;;;741032;187;923664;-71
2021/07/02 09:02:08;;;;;;;7.20;6.50;;;;;;;;;;739076;187;918510;-70
2021/07/02 09:04:34;;;;;;;9.20;7.23;;;;;;;;;;741531;187;919116;-71
2021/07/02 09:07:02;;;;;;;9.13;6.83;;;;;;;;;;756035;185;874825;-71
2021/07/02 09:09:34;;;;;;;9.40;8.00;;;;;;;;;;737701;186;944237;-69
2021/07/02 09:12:06;;;;;;;10.45;8.10;;;;;;;;;;740591;187;920601;-71
2021/07/02 09:14:31;;;;;;;9.37;7.90;;;;;;;;;;747449;186;1021997;-71
2021/07/02 09:16:57;;;;;;;9.07;7.97;;;;;;;;;;744816;186;919881;-70
2021/07/02 09:19:23;;;;;;;7.83;7.03;;;;;;;;;;739177;186;918809;-68
2021/07/02 09:21:49;;;;;;;11.50;8.80;;;;;;;;;;743142;186;926968;-69
2021/07/02 09:24:36;;;;;;;10.80;9.60;;;;;;;;;;740501;186;919132;-69
2021/07/02 09:27:01;;;;;;;9.97;8.27;;;;;;;;;;745147;184;918986;-69
2021/07/02 09:29:27;;;;;;;8.65;7.75;;;;;;;;;;741207;186;916223;-70
2021/07/02 09:31:55;;;;;;;13.17;8.10;;;;;;;;;;738390;187;919492;-69
2021/07/02 09:34:21;;;;;;;9.77;8.30;;;;;;;;;;738491;189;920114;-67
2021/07/02 09:36:47;;;;;;;9.60;7.80;;;;;;;;;;737314;189;918414;-69
2021/07/02 09:39:29;;;;;;;12.60;8.93;;;;;;;;;;742165;186;918415;-69
2021/07/02 09:41:54;;;;;;;8.90;7.83;;;;;;;;;;739261;186;918738;-68
2021/07/02 09:44:20;;;;;;;10.40;8.10;;;;;;;;;;739951;186;919207;-69
2021/07/02 09:46:46;;;;;;;10.00;8.97;;;;;;;;;;751042;186;918443;-69
2021/07/02 09:49:18;;;;;;;12.27;8.33;;;;;;;;;;743490;187;918928;-69
2021/07/02 09:51:43;;;;;;;14.83;8.70;;;;;;;;;;739304;186;918042;-68
2021/07/02 09:54:09;;;;;;;10.37;9.27;;;;;;;;;;744056;189;917592;-69
2021/07/02 09:56:35;;;;;;;9.90;8.90;;;;;;;;;;739260;187;919721;-70
2021/07/02 09:59:01;;;;;;;10.10;8.83;;;;;;;;;;738658;187;962394;-70
2021/07/02 10:01:28;;;;;;;10.93;9.83;;;;;;;;;;735377;187;925471;-69
2021/07/02 10:03:54;;;;;;;10.23;8.20;;;;;;;;;;745876;187;918508;-69
2021/07/02 10:06:19;;;;;;;12.10;10.63;;;;;;;;;;735587;186;918699;-71
2021/07/02 10:08:45;;;;;;;11.67;9.90;;;;;;;;;;739174;187;939596;-70
2021/07/02 10:11:11;;;;;;;11.67;10.47;;;;;;;;;;745823;187;916612;-70
2021/07/02 10:13:38;;;;;;;11.37;9.67;;;;;;;;;;739444;189;919625;-68
2021/07/02 10:16:05;;;;;;;12.23;10.93;;;;;;;;;;739053;186;915373;-69
2021/07/02 10:18:31;;;;;;;12.13;10.93;;;;;;;;;;739684;187;915450;-67
2021/07/02 10:21:00;;;;;;;13.27;10.63;;;;;;;;;;747106;188;915412;-70
2021/07/02 10:23:28;;;;;;;14.30;10.57;;;;;;;;;;743612;185;915149;-69
2021/07/02 10:25:53;;;;;;;11.97;9.97;;;;;;;;;;740367;186;918974;-70
2021/07/02 10:28:19;;;;;;;12.27;9.53;;;;;;;;;;745890;186;915287;-69
2021/07/02 10:30:45;;;;;;;12.50;9.93;;;;;;;;;;742644;186;914452;-69
2021/07/02 10:33:11;;;;;;;11.50;9.10;;;;;;;;;;741058;186;917674;-68
2021/07/02 10:35:37;;;;;;;11.07;9.60;;;;;;;;;;743654;186;918724;-68
2021/07/02 10:38:03;;;;;;;9.97;8.97;;;;;;;;;;739631;186;1023868;-68
2021/07/02 10:40:31;;;;;;;9.70;8.73;;;;;;;;;;737885;186;942017;-69
2021/07/02 10:43:11;;;;;;;11.47;9.17;;;;;;;;;;738167;189;919546;-68
2021/07/02 10:45:37;;;;;;;10.50;9.27;;;;;;;;;;737687;186;919835;-67
2021/07/02 10:48:03;;;;;;;10.07;8.23;;;;;;;;;;745301;187;922157;-68
2021/07/02 10:50:34;;;;;;;10.67;9.47;;;;;;;;;;739226;187;921094;-68
2021/07/02 10:53:18;;;;;;;10.55;8.07;;;;;;;;;;741001;186;945238;-67
2021/07/02 10:55:44;;;;;;;10.82;8.98;;;;;;;;;;740944;186;918556;-69
2021/07/02 10:58:10;;;;;;;9.80;8.80;;;;;;;;;;746724;186;918999;-69
2021/07/02 11:00:35;;;;;;;10.47;9.43;;;;;;;;;;738706;186;919512;-69
2021/07/02 11:03:06;;;;;;;11.00;9.47;;;;;;;;;;738882;187;946722;-68
2021/07/02 11:05:33;;;;;;;9.48;8.50;;;;;;;;;;737132;187;1074200;-69
2021/07/02 11:07:59;;;;;;;9.37;7.80;;;;;;;;;;743547;187;919085;-67
2021/07/02 11:10:24;;;;;;;11.10;9.23;;;;;;;;;;740813;186;919449;-67
2021/07/02 11:12:58;;;;;;;9.95;8.18;;;;;;;;;;739039;186;930213;-68
2021/07/02 11:15:24;;;;;;;8.93;7.77;;;;;;;;;;737519;187;918976;-68
2021/07/02 11:17:50;;;;;;;11.63;8.67;;;;;;;;;;745896;186;864121;-68
2021/07/02 11:20:31;;;;;;;10.43;7.87;;;;;;;;;;738678;187;928544;-68
2021/07/02 11:22:58;;;;;;;9.17;7.63;;;;;;;;;;738359;186;919814;-69
2021/07/02 11:25:31;;;;;;;8.67;7.87;;;;;;;;;;738550;187;918254;-69
2021/07/02 11:28:01;;;;;;;8.23;6.40;;;;;;;;;;742626;187;919290;-68
2021/07/02 11:30:33;;;;;;;7.00;4.93;;;;;;;;;;745993;187;1020725;-70
2021/07/02 11:32:53;;;;;;;5.73;4.30;;;;;;;;;;736966;186;1020156;-70
2021/07/02 11:35:19;;;;;;;4.60;3.87;;;;;;;;;;739856;186;917929;-68
2021/07/02 11:37:51;;;;;;;5.90;5.27;;;;;;;;;;745254;186;919666;-68
2021/07/02 11:40:17;;;;;;;5.80;5.00;;;;;;;;;;734933;186;918645;-68
2021/07/02 11:42:43;;;;;;;5.43;3.93;;;;;;;;;;737175;186;920250;-69
2021/07/02 11:45:09;;;;;;;4.93;4.27;;;;;;;;;;745099;186;622017;-71
2021/07/02 11:47:38;;;;;;;7.20;3.85;;;;;;;;;;741423;186;918112;-71
2021/07/02 11:50:04;;;;;;;6.30;3.70;;;;;;;;;;739497;186;1020324;-68
2021/07/02 11:52:30;;;;;;;5.70;4.13;;;;;;;;;;738858;186;919854;-69
2021/07/02 11:54:56;;;;;;;5.37;4.20;;;;;;;;;;745320;188;919229;-67
2021/07/02 11:57:22;;;;;;;5.60;4.30;;;;;;;;;;740041;186;874232;-69
2021/07/02 12:00:03;;;;;;;5.00;4.50;;;;;;;;;;742276;186;919310;-71
2021/07/02 12:02:29;;;;;;;5.62;3.75;;;;;;;;;;739859;186;919358;-68
2021/07/02 12:05:03;;;;;;;6.13;4.07;;;;;;;;;;744755;188;920633;-69
2021/07/02 12:07:29;;;;;;;3.57;3.20;;;;;;;;;;749611;186;919101;-70
2021/07/02 12:09:55;;;;;;;4.50;3.90;;;;;;;;;;739235;186;946045;-70
2021/07/02 12:12:21;;;;;;;5.07;2.90;;;;;;;;;;739397;187;919247;-70
2021/07/02 12:14:46;;;;;;;5.80;3.23;;;;;;;;;;747589;187;918662;-70
2021/07/02 12:17:12;;;;;;;3.90;2.70;;;;;;;;;;736747;187;919803;-71
2021/07/02 12:19:40;;;;;;;4.90;3.50;;;;;;;;;;737513;186;917621;-69
2021/07/02 12:22:13;;;;;;;4.07;3.42;;;;;;;;;;741730;187;917722;-68
2021/07/02 12:24:38;;;;;;;6.93;2.90;;;;;;;;;;744439;187;919481;-69
2021/07/02 12:27:04;;;;;;;3.97;2.90;;;;;;;;;;742317;186;918299;-71
2021/07/02 12:29:30;;;;;;;3.90;3.10;;;;;;;;;;737483;187;919094;-69
2021/07/02 12:31:56;;;;;;;9.57;2.80;;;;;;;;;;744960;186;916477;-69
2021/07/02 12:34:22;;;;;;;3.73;2.73;;;;;;;;;;737652;186;917490;-70
2021/07/02 12:36:53;;;;;;;3.30;2.70;;;;;;;;;;739270;187;916202;-68
2021/07/02 12:39:19;;;;;;;5.50;2.97;;;;;;;;;;738452;187;919964;-68
2021/07/02 12:41:46;;;;;;;5.63;2.40;;;;;;;;;;744517;186;917614;-69
2021/07/02 12:44:12;;;;;;;5.27;3.07;;;;;;;;;;740296;186;920624;-68
2021/07/02 12:46:37;;;;;;;7.57;3.00;;;;;;;;;;742914;186;919003;-69
2021/07/02 12:49:09;;;;;;;3.58;3.17;;;;;;;;;;747146;186;920058;-69
2021/07/02 12:51:36;;;;;;;3.73;2.63;;;;;;;;;;750102;185;1090607;-69
2021/07/02 12:56:42;;;;;;;5.30;2.90;;;;;;;;;;737040;186;998232;-69
2021/07/02 12:59:12;;;;;;;3.20;2.70;;;;;;;;;;738631;186;919021;-67
2021/07/02 13:01:39;;;;;;;3.93;2.80;;;;;;;;;;745004;186;914910;-71
2021/07/02 13:04:04;;;;;;;2.90;2.27;;;;;;;;;;738360;186;924167;-69
2021/07/02 13:06:30;;;;;;;4.03;2.78;;;;;;;;;;737560;186;913056;-71
2021/07/02 13:08:56;;;;;;;4.23;2.43;;;;;;;;;;743469;187;952764;-70
2021/07/02 13:11:22;;;;;;;3.13;2.30;;;;;;;;;;742004;187;910738;-70
2021/07/02 13:13:48;;;;;;;2.63;2.13;;;;;;;;;;739744;186;910965;-70
2021/07/02 13:16:13;;;;;;;2.90;2.37;;;;;;;;;;741725;187;919572;-69
2021/07/02 13:18:42;;;;;;;3.80;2.83;;;;;;;;;;745842;187;918840;-70
2021/07/02 13:21:08;;;;;;;3.43;2.67;;;;;;;;;;738552;186;918520;-70
2021/07/02 13:23:33;;;;;;;3.57;2.90;;;;;;;;;;739234;186;919199;-70
2021/07/02 13:26:17;;;;;;;3.30;2.70;;;;;;;;;;745159;187;919075;-67
2021/07/02 13:28:43;;;;;;;2.80;2.50;;;;;;;;;;746655;187;919002;-71
2021/07/02 13:31:15;;;;;;;3.13;2.40;;;;;;;;;;739159;187;918634;-69
2021/07/02 13:33:40;;;;;;;3.47;2.43;;;;;;;;;;738733;188;1020969;-71
2021/07/02 13:36:06;;;;;;;3.00;2.40;;;;;;;;;;738256;186;918110;-70
2021/07/02 13:38:32;;;;;;;4.20;2.70;;;;;;;;;;740105;187;918809;-70
2021/07/02 13:40:58;;;;;;;5.80;2.00;;;;;;;;;;741130;186;919892;-68
2021/07/02 13:43:24;;;;;;;3.30;2.23;;;;;;;;;;739952;186;919343;-69
2021/07/02 13:45:55;;;;;;;4.63;2.63;;;;;;;;;;743567;187;917834;-69
2021/07/02 13:48:21;;;;;;;3.67;2.57;;;;;;;;;;741227;187;918807;-69
2021/07/02 13:50:47;;;;;;;4.30;3.00;;;;;;;;;;740749;187;917954;-72
2021/07/02 13:53:13;;;;;;;4.30;2.37;;;;;;;;;;739757;187;926939;-70
2021/07/02 13:55:39;;;;;;;5.27;2.20;;;;;;;;;;743021;189;919674;-70
2021/07/02 13:58:05;;;;;;;2.80;2.30;;;;;;;;;;740687;186;919155;-71
2021/07/02 14:00:31;;;;;;;4.40;2.50;;;;;;;;;;737700;186;919422;-71
2021/07/02 14:02:57;;;;;;;3.83;2.93;;;;;;;;;;744926;186;918452;-71
2021/07/02 14:05:23;;;;;;;5.43;2.63;;;;;;;;;;741947;186;918450;-68
2021/07/02 14:07:49;;;;;;;3.23;2.33;;;;;;;;;;740330;186;1020690;-71
2021/07/02 14:10:15;;;;;;;3.60;2.57;;;;;;;;;;750149;186;916255;-73
2021/07/02 14:12:41;;;;;;;3.87;2.70;;;;;;;;;;744646;186;960988;-70
2021/07/02 14:15:07;;;;;;;3.50;2.17;;;;;;;;;;739519;186;919183;-70
2021/07/02 14:17:35;;;;;;;2.73;2.20;;;;;;;;;;740402;184;919777;-74
2021/07/02 14:19:59;;;;;;;3.37;2.70;;;;;;;;;;744212;187;918579;-71
2021/07/02 14:22:25;;;;;;;4.70;2.43;;;;;;;;;;738777;187;918680;-70